Terminal Aerodrome Forecast
Issued by NWS Wilmington, NC

Home | Current Version | Previous Version | Text Only | Print | Product List | Glossary On
Versions: 1 2 3 4 5 6 7 8 9 10 11 12 13 14 15 16
000
FTUS42 KILM 031730 AAA
TAFLBT
TAF AMD
KLBT 031730Z 0317/0418 18009KT P6SM VCSH SCT025 SCT035 BKN070
     FM040100 15004KT P6SM SCT070 BKN120
     FM041100 08004KT 6SM -RA BKN020 OVC080
     FM041400 04005KT P6SM VCSH BKN040=

USA.gov is the U.S. government's official web portal to all federal, state and local government web resources and services.